sensor_id;sensor_type;location;lat;lon;timestamp;pressure;altitude;pressure_sealevel;temperature;humidity
60489;BME280;46331;49.252;8.904;2023-01-16T00:00:23;98512.94;;;6.17;61.68
60489;BME280;46331;49.252;8.904;2023-01-16T00:01:04;98509.91;;;6.25;61.58
60489;BME280;46331;49.252;8.904;2023-01-16T00:01:45;98523.31;;;6.23;61.57
60489;BME280;46331;49.252;8.904;2023-01-16T00:02:26;98514.16;;;6.26;61.75
60489;BME280;46331;49.252;8.904;2023-01-16T00:03:09;98517.50;;;6.21;62.06
60489;BME280;46331;49.252;8.904;2023-01-16T00:03:51;98515.88;;;6.20;61.96
60489;BME280;46331;49.252;8.904;2023-01-16T00:04:32;98514.88;;;6.21;61.46
60489;BME280;46331;49.252;8.904;2023-01-16T00:05:14;98508.56;;;6.22;61.88
60489;BME280;46331;49.252;8.904;2023-01-16T00:05:55;98502.25;;;6.23;61.65
60489;BME280;46331;49.252;8.904;2023-01-16T00:06:35;98508.22;;;6.19;62.07
60489;BME280;46331;49.252;8.904;2023-01-16T00:07:16;98500.91;;;6.21;62.07
60489;BME280;46331;49.252;8.904;2023-01-16T00:07:56;98496.59;;;6.15;61.65
60489;BME280;46331;49.252;8.904;2023-01-16T00:08:37;98492.69;;;6.17;61.58
60489;BME280;46331;49.252;8.904;2023-01-16T00:09:18;98494.94;;;6.25;61.84
60489;BME280;46331;49.252;8.904;2023-01-16T00:09:58;98505.53;;;6.31;61.73
60489;BME280;46331;49.252;8.904;2023-01-16T00:10:39;98506.50;;;6.24;61.88
60489;BME280;46331;49.252;8.904;2023-01-16T00:11:20;98505.78;;;6.29;61.65
60489;BME280;46331;49.252;8.904;2023-01-16T00:12:00;98501.53;;;6.28;61.73
60489;BME280;46331;49.252;8.904;2023-01-16T00:12:41;98497.09;;;6.29;62.19
60489;BME280;46331;49.252;8.904;2023-01-16T00:13:21;98501.22;;;6.24;61.95
60489;BME280;46331;49.252;8.904;2023-01-16T00:14:02;98503.38;;;6.28;62.20
60489;BME280;46331;49.252;8.904;2023-01-16T00:14:43;98493.34;;;6.24;61.67
60489;BME280;46331;49.252;8.904;2023-01-16T00:15:23;98499.97;;;6.27;62.25
60489;BME280;46331;49.252;8.904;2023-01-16T00:16:04;98500.69;;;6.22;62.31
60489;BME280;46331;49.252;8.904;2023-01-16T00:16:45;98502.59;;;6.27;62.29
60489;BME280;46331;49.252;8.904;2023-01-16T00:17:26;98499.38;;;6.25;62.01
60489;BME280;46331;49.252;8.904;2023-01-16T00:18:06;98495.16;;;6.24;62.39
60489;BME280;46331;49.252;8.904;2023-01-16T00:18:47;98489.56;;;6.20;62.48
60489;BME280;46331;49.252;8.904;2023-01-16T00:19:27;98483.69;;;6.13;62.25
60489;BME280;46331;49.252;8.904;2023-01-16T00:20:09;98487.09;;;6.14;63.05
60489;BME280;46331;49.252;8.904;2023-01-16T00:20:49;98486.78;;;6.10;62.87
60489;BME280;46331;49.252;8.904;2023-01-16T00:21:30;98479.38;;;6.07;62.60
60489;BME280;46331;49.252;8.904;2023-01-16T00:22:10;98480.31;;;6.01;62.96
60489;BME280;46331;49.252;8.904;2023-01-16T00:22:51;98482.78;;;6.07;63.40
60489;BME280;46331;49.252;8.904;2023-01-16T00:23:31;98475.59;;;6.03;63.67
60489;BME280;46331;49.252;8.904;2023-01-16T00:24:12;98484.16;;;6.10;63.57
60489;BME280;46331;49.252;8.904;2023-01-16T00:24:53;98480.44;;;5.94;64.09
60489;BME280;46331;49.252;8.904;2023-01-16T00:25:33;98481.81;;;5.97;64.26
60489;BME280;46331;49.252;8.904;2023-01-16T00:26:18;98481.25;;;5.95;63.95
60489;BME280;46331;49.252;8.904;2023-01-16T00:26:59;98482.28;;;5.94;63.91
60489;BME280;46331;49.252;8.904;2023-01-16T00:27:40;98480.06;;;5.73;64.48
60489;BME280;46331;49.252;8.904;2023-01-16T00:28:20;98474.16;;;5.66;64.37
60489;BME280;46331;49.252;8.904;2023-01-16T00:29:01;98485.50;;;5.67;64.07
60489;BME280;46331;49.252;8.904;2023-01-16T00:29:42;98475.94;;;5.49;64.97
60489;BME280;46331;49.252;8.904;2023-01-16T00:30:23;98476.25;;;5.24;66.25
60489;BME280;46331;49.252;8.904;2023-01-16T00:31:05;98470.97;;;5.35;65.87
60489;BME280;46331;49.252;8.904;2023-01-16T00:31:46;98473.94;;;5.39;65.88
60489;BME280;46331;49.252;8.904;2023-01-16T00:32:27;98472.66;;;5.42;65.77
60489;BME280;46331;49.252;8.904;2023-01-16T00:33:07;98478.97;;;5.41;65.45
60489;BME280;46331;49.252;8.904;2023-01-16T00:33:48;98462.50;;;5.33;66.06
60489;BME280;46331;49.252;8.904;2023-01-16T00:34:28;98465.16;;;5.33;66.26
60489;BME280;46331;49.252;8.904;2023-01-16T00:35:09;98468.25;;;5.30;66.14
60489;BME280;46331;49.252;8.904;2023-01-16T00:35:51;98465.41;;;5.20;67.08
60489;BME280;46331;49.252;8.904;2023-01-16T00:36:31;98471.91;;;5.17;66.80
60489;BME280;46331;49.252;8.904;2023-01-16T00:37:12;98464.16;;;5.23;67.13
60489;BME280;46331;49.252;8.904;2023-01-16T00:37:52;98465.88;;;5.17;66.92
60489;BME280;46331;49.252;8.904;2023-01-16T00:38:36;98464.63;;;5.19;67.11
60489;BME280;46331;49.252;8.904;2023-01-16T00:39:17;98462.09;;;5.13;67.29
60489;BME280;46331;49.252;8.904;2023-01-16T00:39:57;98468.03;;;5.20;67.31
60489;BME280;46331;49.252;8.904;2023-01-16T00:40:38;98465.63;;;5.18;67.19
60489;BME280;46331;49.252;8.904;2023-01-16T00:41:18;98459.34;;;5.19;67.37
60489;BME280;46331;49.252;8.904;2023-01-16T00:41:59;98455.69;;;5.20;67.18
60489;BME280;46331;49.252;8.904;2023-01-16T00:42:39;98448.25;;;5.17;67.07
60489;BME280;46331;49.252;8.904;2023-01-16T00:43:20;98454.97;;;5.25;66.78
60489;BME280;46331;49.252;8.904;2023-01-16T00:44:00;98453.03;;;5.32;66.74
60489;BME280;46331;49.252;8.904;2023-01-16T00:44:41;98456.88;;;5.42;66.34
60489;BME280;46331;49.252;8.904;2023-01-16T00:45:21;98453.53;;;5.46;66.24
60489;BME280;46331;49.252;8.904;2023-01-16T00:46:02;98442.94;;;5.41;66.30
60489;BME280;46331;49.252;8.904;2023-01-16T00:46:43;98441.22;;;5.47;66.44
60489;BME280;46331;49.252;8.904;2023-01-16T00:47:23;98443.50;;;5.43;66.14
60489;BME280;46331;49.252;8.904;2023-01-16T00:48:04;98437.69;;;5.41;66.37
60489;BME280;46331;49.252;8.904;2023-01-16T00:48:45;98435.84;;;5.42;66.20
60489;BME280;46331;49.252;8.904;2023-01-16T00:49:25;98438.44;;;5.25;66.73
60489;BME280;46331;49.252;8.904;2023-01-16T00:50:07;98440.34;;;5.29;66.43
60489;BME280;46331;49.252;8.904;2023-01-16T00:50:48;98435.78;;;5.25;66.72
60489;BME280;46331;49.252;8.904;2023-01-16T00:51:29;98437.19;;;5.15;67.14
60489;BME280;46331;49.252;8.904;2023-01-16T00:52:09;98436.25;;;5.22;67.15
60489;BME280;46331;49.252;8.904;2023-01-16T00:52:50;98432.84;;;5.21;66.98
60489;BME280;46331;49.252;8.904;2023-01-16T00:53:30;98435.78;;;5.25;67.50
60489;BME280;46331;49.252;8.904;2023-01-16T00:54:11;98432.72;;;5.16;67.14
60489;BME280;46331;49.252;8.904;2023-01-16T00:54:51;98429.34;;;5.04;67.78
60489;BME280;46331;49.252;8.904;2023-01-16T00:55:33;98430.72;;;5.06;67.71
60489;BME280;46331;49.252;8.904;2023-01-16T00:56:14;98433.56;;;5.05;67.81
60489;BME280;46331;49.252;8.904;2023-01-16T00:56:55;98430.25;;;5.09;68.47
60489;BME280;46331;49.252;8.904;2023-01-16T00:57:38;98429.91;;;5.06;68.16
60489;BME280;46331;49.252;8.904;2023-01-16T00:58:18;98429.00;;;5.12;67.91
60489;BME280;46331;49.252;8.904;2023-01-16T00:58:59;98429.69;;;5.07;67.87
60489;BME280;46331;49.252;8.904;2023-01-16T00:59:39;98424.66;;;5.06;68.08
60489;BME280;46331;49.252;8.904;2023-01-16T01:00:20;98423.19;;;4.98;68.21
60489;BME280;46331;49.252;8.904;2023-01-16T01:01:02;98423.75;;;5.00;68.29
60489;BME280;46331;49.252;8.904;2023-01-16T01:01:42;98422.16;;;4.99;68.48
60489;BME280;46331;49.252;8.904;2023-01-16T01:02:23;98423.31;;;4.91;68.44
60489;BME280;46331;49.252;8.904;2023-01-16T01:03:04;98414.72;;;4.96;68.29
60489;BME280;46331;49.252;8.904;2023-01-16T01:03:45;98410.19;;;4.91;68.65
60489;BME280;46331;49.252;8.904;2023-01-16T01:04:27;98409.72;;;4.94;68.62
60489;BME280;46331;49.252;8.904;2023-01-16T01:05:08;98409.25;;;4.97;68.28
60489;BME280;46331;49.252;8.904;2023-01-16T01:05:49;98412.94;;;4.96;68.65
60489;BME280;46331;49.252;8.904;2023-01-16T01:06:29;98408.38;;;4.92;68.24
60489;BME280;46331;49.252;8.904;2023-01-16T01:07:10;98408.59;;;4.90;68.42
60489;BME280;46331;49.252;8.904;2023-01-16T01:07:51;98403.00;;;4.87;68.55
60489;BME280;46331;49.252;8.904;2023-01-16T01:08:31;98404.28;;;4.84;68.84
60489;BME280;46331;49.252;8.904;2023-01-16T01:09:12;98396.50;;;4.89;69.04
60489;BME280;46331;49.252;8.904;2023-01-16T01:09:52;98402.41;;;4.96;68.39
60489;BME280;46331;49.252;8.904;2023-01-16T01:10:36;98396.47;;;5.01;68.14
60489;BME280;46331;49.252;8.904;2023-01-16T01:11:16;98396.69;;;4.99;68.67
60489;BME280;46331;49.252;8.904;2023-01-16T01:11:58;98398.66;;;4.80;69.13
60489;BME280;46331;49.252;8.904;2023-01-16T01:12:38;98398.56;;;4.75;69.18
60489;BME280;46331;49.252;8.904;2023-01-16T01:13:19;98399.38;;;4.76;69.36
60489;BME280;46331;49.252;8.904;2023-01-16T01:13:59;98389.44;;;4.78;68.91
60489;BME280;46331;49.252;8.904;2023-01-16T01:14:40;98389.09;;;4.74;69.13
60489;BME280;46331;49.252;8.904;2023-01-16T01:15:22;98388.31;;;4.74;69.25
60489;BME280;46331;49.252;8.904;2023-01-16T01:16:02;98388.53;;;4.72;69.48
60489;BME280;46331;49.252;8.904;2023-01-16T01:16:43;98388.16;;;4.80;69.12
60489;BME280;46331;49.252;8.904;2023-01-16T01:17:23;98381.44;;;4.73;68.89
60489;BME280;46331;49.252;8.904;2023-01-16T01:18:04;98378.47;;;4.81;69.39
60489;BME280;46331;49.252;8.904;2023-01-16T01:18:45;98380.88;;;4.82;69.24
60489;BME280;46331;49.252;8.904;2023-01-16T01:19:26;98376.31;;;4.78;69.24
60489;BME280;46331;49.252;8.904;2023-01-16T01:20:07;98381.13;;;4.69;69.90
60489;BME280;46331;49.252;8.904;2023-01-16T01:20:48;98388.06;;;4.75;69.35
60489;BME280;46331;49.252;8.904;2023-01-16T01:21:28;98372.53;;;4.74;69.01
60489;BME280;46331;49.252;8.904;2023-01-16T01:22:09;98375.94;;;4.86;69.28
60489;BME280;46331;49.252;8.904;2023-01-16T01:22:49;98366.22;;;4.87;68.84
60489;BME280;46331;49.252;8.904;2023-01-16T01:23:30;98380.63;;;4.84;69.14
60489;BME280;46331;49.252;8.904;2023-01-16T01:24:11;98372.63;;;4.79;69.14
60489;BME280;46331;49.252;8.904;2023-01-16T01:24:51;98372.88;;;4.77;69.51
60489;BME280;46331;49.252;8.904;2023-01-16T01:25:32;98365.69;;;4.73;69.50
60489;BME280;46331;49.252;8.904;2023-01-16T01:26:15;98371.75;;;4.73;69.35
60489;BME280;46331;49.252;8.904;2023-01-16T01:26:56;98369.00;;;4.68;69.44
60489;BME280;46331;49.252;8.904;2023-01-16T01:27:36;98375.09;;;4.69;69.54
60489;BME280;46331;49.252;8.904;2023-01-16T01:28:17;98375.88;;;4.69;69.47
60489;BME280;46331;49.252;8.904;2023-01-16T01:28:57;98365.03;;;4.65;69.57
60489;BME280;46331;49.252;8.904;2023-01-16T01:29:38;98367.91;;;4.64;69.32
60489;BME280;46331;49.252;8.904;2023-01-16T01:30:18;98372.47;;;4.69;69.63
60489;BME280;46331;49.252;8.904;2023-01-16T01:31:04;98363.66;;;4.63;70.11
60489;BME280;46331;49.252;8.904;2023-01-16T01:31:44;98367.66;;;4.65;69.36
60489;BME280;46331;49.252;8.904;2023-01-16T01:32:25;98367.09;;;4.63;69.52
60489;BME280;46331;49.252;8.904;2023-01-16T01:33:05;98361.38;;;4.66;69.40
60489;BME280;46331;49.252;8.904;2023-01-16T01:33:47;98360.91;;;4.70;69.40
60489;BME280;46331;49.252;8.904;2023-01-16T01:34:30;98365.38;;;4.69;69.70
60489;BME280;46331;49.252;8.904;2023-01-16T01:35:14;98360.03;;;4.64;69.47
60489;BME280;46331;49.252;8.904;2023-01-16T01:35:55;98358.19;;;4.64;69.52
60489;BME280;46331;49.252;8.904;2023-01-16T01:36:39;98360.25;;;4.62;69.57
60489;BME280;46331;49.252;8.904;2023-01-16T01:37:19;98363.44;;;4.64;69.38
60489;BME280;46331;49.252;8.904;2023-01-16T01:38:04;98356.94;;;4.67;69.52
60489;BME280;46331;49.252;8.904;2023-01-16T01:38:44;98356.00;;;4.73;69.67
60489;BME280;46331;49.252;8.904;2023-01-16T01:39:26;98361.81;;;4.63;69.47
60489;BME280;46331;49.252;8.904;2023-01-16T01:40:07;98347.34;;;4.61;69.84
60489;BME280;46331;49.252;8.904;2023-01-16T01:40:48;98354.41;;;4.72;69.33
60489;BME280;46331;49.252;8.904;2023-01-16T01:41:29;98358.41;;;4.75;68.78
60489;BME280;46331;49.252;8.904;2023-01-16T01:42:10;98354.31;;;4.67;69.26
60489;BME280;46331;49.252;8.904;2023-01-16T01:43:14;98342.53;;;4.70;69.13
60489;BME280;46331;49.252;8.904;2023-01-16T01:43:55;98341.25;;;4.72;68.75
60489;BME280;46331;49.252;8.904;2023-01-16T01:45:01;98340.81;;;4.75;69.12
60489;BME280;46331;49.252;8.904;2023-01-16T01:45:53;98338.09;;;4.70;68.91
60489;BME280;46331;49.252;8.904;2023-01-16T01:46:41;98340.03;;;4.63;68.97
60489;BME280;46331;49.252;8.904;2023-01-16T01:47:28;98339.81;;;4.64;69.42
60489;BME280;46331;49.252;8.904;2023-01-16T01:48:58;98331.09;;;4.76;68.72
60489;BME280;46331;49.252;8.904;2023-01-16T01:49:41;98333.94;;;4.74;69.31
60489;BME280;46331;49.252;8.904;2023-01-16T01:50:30;98330.75;;;4.72;69.28
60489;BME280;46331;49.252;8.904;2023-01-16T01:51:23;98328.59;;;4.69;69.25
60489;BME280;46331;49.252;8.904;2023-01-16T01:52:06;98328.47;;;4.76;69.29
60489;BME280;46331;49.252;8.904;2023-01-16T01:52:48;98327.44;;;4.77;69.12
60489;BME280;46331;49.252;8.904;2023-01-16T01:53:35;98321.63;;;4.75;69.05
60489;BME280;46331;49.252;8.904;2023-01-16T01:54:21;98325.97;;;4.69;69.75
60489;BME280;46331;49.252;8.904;2023-01-16T01:55:04;98320.72;;;4.69;68.92
60489;BME280;46331;49.252;8.904;2023-01-16T01:55:48;98319.56;;;4.77;69.21
60489;BME280;46331;49.252;8.904;2023-01-16T01:56:46;98312.69;;;4.76;69.49
60489;BME280;46331;49.252;8.904;2023-01-16T01:57:34;98322.88;;;4.72;69.50
60489;BME280;46331;49.252;8.904;2023-01-16T01:58:18;98309.19;;;4.70;69.53
60489;BME280;46331;49.252;8.904;2023-01-16T01:59:07;98315.56;;;4.74;69.67
60489;BME280;46331;49.252;8.904;2023-01-16T01:59:57;98301.19;;;4.77;69.39
60489;BME280;46331;49.252;8.904;2023-01-16T02:00:39;98304.81;;;4.76;69.78
60489;BME280;46331;49.252;8.904;2023-01-16T02:01:19;98304.59;;;4.77;69.27
60489;BME280;46331;49.252;8.904;2023-01-16T02:02:01;98305.41;;;4.78;69.47
60489;BME280;46331;49.252;8.904;2023-01-16T02:02:46;98298.06;;;4.80;69.52
60489;BME280;46331;49.252;8.904;2023-01-16T02:04:02;98292.28;;;4.78;69.31
60489;BME280;46331;49.252;8.904;2023-01-16T02:04:44;98290.66;;;4.77;69.67
60489;BME280;46331;49.252;8.904;2023-01-16T02:05:33;98281.78;;;4.78;69.65
60489;BME280;46331;49.252;8.904;2023-01-16T02:06:20;98275.63;;;4.72;69.56
60489;BME280;46331;49.252;8.904;2023-01-16T02:07:05;98274.91;;;4.77;69.28
60489;BME280;46331;49.252;8.904;2023-01-16T02:07:46;98280.19;;;4.65;69.77
60489;BME280;46331;49.252;8.904;2023-01-16T02:08:30;98273.59;;;4.62;69.87
60489;BME280;46331;49.252;8.904;2023-01-16T02:09:12;98271.00;;;4.51;69.89
60489;BME280;46331;49.252;8.904;2023-01-16T02:09:59;98273.97;;;4.54;70.08
60489;BME280;46331;49.252;8.904;2023-01-16T02:10:51;98264.16;;;4.50;70.07
60489;BME280;46331;49.252;8.904;2023-01-16T02:11:36;98258.44;;;4.53;70.22
60489;BME280;46331;49.252;8.904;2023-01-16T02:12:19;98262.53;;;4.60;69.97
60489;BME280;46331;49.252;8.904;2023-01-16T02:13:00;98267.66;;;4.67;70.05
60489;BME280;46331;49.252;8.904;2023-01-16T02:13:41;98260.47;;;4.62;69.91
60489;BME280;46331;49.252;8.904;2023-01-16T02:14:23;98260.72;;;4.61;70.02
60489;BME280;46331;49.252;8.904;2023-01-16T02:15:05;98254.66;;;4.60;70.01
60489;BME280;46331;49.252;8.904;2023-01-16T02:15:46;98253.72;;;4.66;69.63
60489;BME280;46331;49.252;8.904;2023-01-16T02:16:47;98249.31;;;4.55;70.21
60489;BME280;46331;49.252;8.904;2023-01-16T02:17:46;98246.78;;;4.60;69.77
60489;BME280;46331;49.252;8.904;2023-01-16T02:18:45;98251.22;;;4.60;70.51
60489;BME280;46331;49.252;8.904;2023-01-16T02:23:58;98241.88;;;4.64;69.52
60489;BME280;46331;49.252;8.904;2023-01-16T02:24:48;98242.84;;;4.75;69.55
60489;BME280;46331;49.252;8.904;2023-01-16T02:26:03;98239.31;;;4.69;69.62
60489;BME280;46331;49.252;8.904;2023-01-16T02:30:45;98222.19;;;4.66;69.75
60489;BME280;46331;49.252;8.904;2023-01-16T02:37:45;98207.97;;;4.62;69.45
60489;BME280;46331;49.252;8.904;2023-01-16T02:41:31;98199.19;;;4.57;69.48
60489;BME280;46331;49.252;8.904;2023-01-16T02:42:34;98194.56;;;4.47;69.80
60489;BME280;46331;49.252;8.904;2023-01-16T02:46:06;98186.84;;;4.57;70.00
60489;BME280;46331;49.252;8.904;2023-01-16T02:49:11;98178.66;;;4.54;69.73
60489;BME280;46331;49.252;8.904;2023-01-16T02:51:02;98176.94;;;4.59;69.47
60489;BME280;46331;49.252;8.904;2023-01-16T02:51:46;98174.78;;;4.56;69.66
60489;BME280;46331;49.252;8.904;2023-01-16T02:52:40;98170.38;;;4.45;69.73
60489;BME280;46331;49.252;8.904;2023-01-16T02:54:33;98167.63;;;4.52;69.69
60489;BME280;46331;49.252;8.904;2023-01-16T02:55:46;98158.91;;;4.51;69.62
60489;BME280;46331;49.252;8.904;2023-01-16T02:56:36;98160.09;;;4.43;69.37
60489;BME280;46331;49.252;8.904;2023-01-16T02:57:24;98150.78;;;4.36;70.20
60489;BME280;46331;49.252;8.904;2023-01-16T02:58:09;98149.69;;;4.32;70.09
60489;BME280;46331;49.252;8.904;2023-01-16T02:58:52;98147.13;;;4.37;69.56
60489;BME280;46331;49.252;8.904;2023-01-16T02:59:33;98144.69;;;4.47;69.33
60489;BME280;46331;49.252;8.904;2023-01-16T03:00:15;98148.34;;;4.46;69.48
60489;BME280;46331;49.252;8.904;2023-01-16T03:01:00;98148.81;;;4.43;69.18
60489;BME280;46331;49.252;8.904;2023-01-16T03:01:41;98141.81;;;4.32;69.37
60489;BME280;46331;49.252;8.904;2023-01-16T03:02:21;98132.31;;;4.30;70.03
60489;BME280;46331;49.252;8.904;2023-01-16T03:03:05;98137.09;;;4.34;69.57
60489;BME280;46331;49.252;8.904;2023-01-16T03:04:48;98133.06;;;4.43;69.60
60489;BME280;46331;49.252;8.904;2023-01-16T03:05:39;98128.13;;;4.46;69.41
60489;BME280;46331;49.252;8.904;2023-01-16T03:07:18;98117.88;;;4.45;68.99
60489;BME280;46331;49.252;8.904;2023-01-16T03:08:22;98116.84;;;4.46;69.18
60489;BME280;46331;49.252;8.904;2023-01-16T03:11:51;98115.88;;;4.35;68.92
60489;BME280;46331;49.252;8.904;2023-01-16T03:13:43;98099.41;;;4.40;69.14
60489;BME280;46331;49.252;8.904;2023-01-16T03:14:36;98100.63;;;4.49;69.03
60489;BME280;46331;49.252;8.904;2023-01-16T03:16:38;98099.03;;;4.48;68.88
60489;BME280;46331;49.252;8.904;2023-01-16T03:19:06;98081.44;;;4.32;68.93
60489;BME280;46331;49.252;8.904;2023-01-16T03:20:41;98076.50;;;4.35;69.12
60489;BME280;46331;49.252;8.904;2023-01-16T03:21:41;98083.03;;;4.33;69.21
60489;BME280;46331;49.252;8.904;2023-01-16T03:23:37;98070.78;;;4.38;68.99
60489;BME280;46331;49.252;8.904;2023-01-16T03:26:27;98075.72;;;4.35;69.59
60489;BME280;46331;49.252;8.904;2023-01-16T03:27:20;98067.84;;;4.35;69.64
60489;BME280;46331;49.252;8.904;2023-01-16T03:30:07;98062.25;;;4.31;69.51
60489;BME280;46331;49.252;8.904;2023-01-16T03:32:08;98058.22;;;4.40;69.75
60489;BME280;46331;49.252;8.904;2023-01-16T03:32:55;98054.81;;;4.40;69.46
60489;BME280;46331;49.252;8.904;2023-01-16T03:35:56;98039.22;;;4.33;69.40
60489;BME280;46331;49.252;8.904;2023-01-16T03:37:34;98042.47;;;4.40;69.88
60489;BME280;46331;49.252;8.904;2023-01-16T03:38:21;98040.41;;;4.42;69.54
60489;BME280;46331;49.252;8.904;2023-01-16T03:39:07;98045.25;;;4.34;69.72
60489;BME280;46331;49.252;8.904;2023-01-16T03:39:53;98039.53;;;4.37;69.77
60489;BME280;46331;49.252;8.904;2023-01-16T03:40:40;98029.19;;;4.30;69.90
60489;BME280;46331;49.252;8.904;2023-01-16T03:41:24;98035.22;;;4.30;70.03
60489;BME280;46331;49.252;8.904;2023-01-16T03:42:14;98031.34;;;4.33;69.82
60489;BME280;46331;49.252;8.904;2023-01-16T03:43:00;98021.16;;;4.37;69.99
60489;BME280;46331;49.252;8.904;2023-01-16T03:43:44;98022.75;;;4.38;69.38
60489;BME280;46331;49.252;8.904;2023-01-16T03:44:37;98019.78;;;4.34;69.63
60489;BME280;46331;49.252;8.904;2023-01-16T03:45:33;98021.81;;;4.44;69.95
60489;BME280;46331;49.252;8.904;2023-01-16T03:46:24;98018.06;;;4.40;69.52
60489;BME280;46331;49.252;8.904;2023-01-16T03:47:11;98011.78;;;4.41;69.34
60489;BME280;46331;49.252;8.904;2023-01-16T03:48:18;98009.47;;;4.44;69.78
60489;BME280;46331;49.252;8.904;2023-01-16T03:49:08;98018.72;;;4.47;69.35
60489;BME280;46331;49.252;8.904;2023-01-16T03:49:54;98017.66;;;4.48;69.50
60489;BME280;46331;49.252;8.904;2023-01-16T03:50:37;98012.56;;;4.41;69.58
60489;BME280;46331;49.252;8.904;2023-01-16T03:51:32;98019.25;;;4.49;69.06
60489;BME280;46331;49.252;8.904;2023-01-16T03:52:17;98011.78;;;4.58;68.89
60489;BME280;46331;49.252;8.904;2023-01-16T03:53:04;98012.56;;;4.58;69.07
60489;BME280;46331;49.252;8.904;2023-01-16T03:53:54;97998.25;;;4.49;69.02
60489;BME280;46331;49.252;8.904;2023-01-16T03:55:31;98000.94;;;4.54;68.61
60489;BME280;46331;49.252;8.904;2023-01-16T03:56:19;97996.41;;;4.66;68.58
60489;BME280;46331;49.252;8.904;2023-01-16T03:57:55;97994.13;;;4.53;69.10
60489;BME280;46331;49.252;8.904;2023-01-16T03:58:39;97995.44;;;4.56;69.00
60489;BME280;46331;49.252;8.904;2023-01-16T03:59:21;97993.63;;;4.56;68.91
60489;BME280;46331;49.252;8.904;2023-01-16T04:00:04;97982.66;;;4.59;68.62
60489;BME280;46331;49.252;8.904;2023-01-16T04:01:52;97986.00;;;4.55;68.90
60489;BME280;46331;49.252;8.904;2023-01-16T04:03:37;97984.59;;;4.47;69.58
60489;BME280;46331;49.252;8.904;2023-01-16T04:04:44;97975.41;;;4.50;68.93
60489;BME280;46331;49.252;8.904;2023-01-16T04:05:41;97971.28;;;4.54;68.71
60489;BME280;46331;49.252;8.904;2023-01-16T04:06:34;97967.38;;;4.56;68.60
60489;BME280;46331;49.252;8.904;2023-01-16T04:07:33;97975.31;;;4.61;68.84
60489;BME280;46331;49.252;8.904;2023-01-16T04:08:19;97964.34;;;4.64;68.58
60489;BME280;46331;49.252;8.904;2023-01-16T04:09:07;97968.00;;;4.63;68.67
60489;BME280;46331;49.252;8.904;2023-01-16T04:09:59;97970.56;;;4.58;68.40
60489;BME280;46331;49.252;8.904;2023-01-16T04:10:43;97960.06;;;4.58;68.79
60489;BME280;46331;49.252;8.904;2023-01-16T04:11:26;97961.81;;;4.53;68.52
60489;BME280;46331;49.252;8.904;2023-01-16T04:12:07;97958.22;;;4.59;68.62
60489;BME280;46331;49.252;8.904;2023-01-16T04:12:54;97959.28;;;4.58;68.83
60489;BME280;46331;49.252;8.904;2023-01-16T04:13:37;97955.13;;;4.45;68.85
60489;BME280;46331;49.252;8.904;2023-01-16T04:14:21;97954.41;;;4.50;68.94
60489;BME280;46331;49.252;8.904;2023-01-16T04:15:23;97946.38;;;4.56;69.07
60489;BME280;46331;49.252;8.904;2023-01-16T04:16:11;97944.50;;;4.52;68.62
60489;BME280;46331;49.252;8.904;2023-01-16T04:16:54;97937.88;;;4.49;69.07
60489;BME280;46331;49.252;8.904;2023-01-16T04:17:37;97930.00;;;4.49;68.95
60489;BME280;46331;49.252;8.904;2023-01-16T04:18:20;97942.72;;;4.57;68.80
60489;BME280;46331;49.252;8.904;2023-01-16T04:19:03;97940.56;;;4.54;68.60
60489;BME280;46331;49.252;8.904;2023-01-16T04:19:44;97933.19;;;4.51;68.41
60489;BME280;46331;49.252;8.904;2023-01-16T04:20:25;97934.34;;;4.60;68.48
60489;BME280;46331;49.252;8.904;2023-01-16T04:21:07;97929.81;;;4.56;68.03
60489;BME280;46331;49.252;8.904;2023-01-16T04:21:48;97928.84;;;4.62;68.18
60489;BME280;46331;49.252;8.904;2023-01-16T04:22:29;97925.19;;;4.63;68.09
60489;BME280;46331;49.252;8.904;2023-01-16T04:23:12;97927.78;;;4.58;68.48
60489;BME280;46331;49.252;8.904;2023-01-16T04:23:55;97924.97;;;4.64;68.50
60489;BME280;46331;49.252;8.904;2023-01-16T04:24:36;97923.84;;;4.60;68.38
60489;BME280;46331;49.252;8.904;2023-01-16T04:25:18;97925.59;;;4.72;68.23
60489;BME280;46331;49.252;8.904;2023-01-16T04:25:59;97925.19;;;4.63;68.29
60489;BME280;46331;49.252;8.904;2023-01-16T04:26:40;97920.13;;;4.56;68.19
60489;BME280;46331;49.252;8.904;2023-01-16T04:27:20;97926.72;;;4.59;68.58
60489;BME280;46331;49.252;8.904;2023-01-16T04:28:01;97916.69;;;4.56;68.52
60489;BME280;46331;49.252;8.904;2023-01-16T04:28:41;97918.13;;;4.63;68.25
60489;BME280;46331;49.252;8.904;2023-01-16T04:29:22;97911.06;;;4.64;68.25
60489;BME280;46331;49.252;8.904;2023-01-16T04:30:03;97918.94;;;4.64;68.26
60489;BME280;46331;49.252;8.904;2023-01-16T04:30:43;97905.56;;;4.65;68.29
60489;BME280;46331;49.252;8.904;2023-01-16T04:31:24;97914.22;;;4.66;68.06
60489;BME280;46331;49.252;8.904;2023-01-16T04:32:05;97917.72;;;4.72;68.03
60489;BME280;46331;49.252;8.904;2023-01-16T04:32:45;97912.94;;;4.69;68.31
60489;BME280;46331;49.252;8.904;2023-01-16T04:33:26;97905.56;;;4.65;68.37
60489;BME280;46331;49.252;8.904;2023-01-16T04:34:06;97903.78;;;4.71;68.22
60489;BME280;46331;49.252;8.904;2023-01-16T04:34:47;97895.06;;;4.65;68.53
60489;BME280;46331;49.252;8.904;2023-01-16T04:35:27;97891.63;;;4.65;68.40
60489;BME280;46331;49.252;8.904;2023-01-16T04:36:08;97894.06;;;4.72;68.27
60489;BME280;46331;49.252;8.904;2023-01-16T04:36:48;97889.06;;;4.70;68.17
60489;BME280;46331;49.252;8.904;2023-01-16T04:37:29;97893.41;;;4.59;68.53
60489;BME280;46331;49.252;8.904;2023-01-16T04:38:10;97890.28;;;4.62;68.52
60489;BME280;46331;49.252;8.904;2023-01-16T04:38:52;97892.59;;;4.59;68.49
60489;BME280;46331;49.252;8.904;2023-01-16T04:39:33;97890.78;;;4.59;68.30
60489;BME280;46331;49.252;8.904;2023-01-16T04:40:13;97892.00;;;4.52;68.96
60489;BME280;46331;49.252;8.904;2023-01-16T04:40:54;97876.53;;;4.55;68.87
60489;BME280;46331;49.252;8.904;2023-01-16T04:41:34;97889.13;;;4.53;68.54
60489;BME280;46331;49.252;8.904;2023-01-16T04:42:18;97879.50;;;4.42;68.59
60489;BME280;46331;49.252;8.904;2023-01-16T04:42:58;97878.47;;;4.43;68.98
60489;BME280;46331;49.252;8.904;2023-01-16T04:43:39;97874.88;;;4.49;68.85
60489;BME280;46331;49.252;8.904;2023-01-16T04:44:19;97877.31;;;4.56;68.84